createdAt,value
2023-08-24T00:00:21.428Z,72.83
2023-08-24T00:01:21.425Z,72.83
2023-08-24T00:02:21.438Z,73.13
2023-08-24T00:03:21.466Z,73.23
2023-08-24T00:04:21.468Z,73.63
2023-08-24T00:05:21.443Z,73.23
2023-08-24T00:06:21.348Z,73.43
2023-08-24T00:07:21.409Z,73.33
2023-08-24T00:08:21.379Z,73.23
2023-08-24T00:09:21.389Z,73.53
2023-08-24T00:10:21.310Z,73.53
2023-08-24T00:11:21.336Z,73.93
2023-08-24T00:12:21.457Z,73.73
2023-08-24T00:13:21.309Z,73.93
2023-08-24T00:14:21.327Z,73.33
2023-08-24T00:15:21.249Z,73.13
2023-08-24T00:16:21.345Z,73.23
2023-08-24T00:17:21.267Z,73.53
2023-08-24T00:18:21.374Z,73.93
2023-08-24T00:19:21.289Z,73.93
2023-08-24T00:20:21.232Z,74.03
2023-08-24T00:21:21.252Z,73.93
2023-08-24T00:22:21.210Z,73.97
2023-08-24T00:23:21.178Z,74.17
2023-08-24T00:24:21.218Z,74.27
2023-08-24T00:25:21.200Z,74.47
2023-08-24T00:26:21.158Z,74.87
2023-08-24T00:27:21.202Z,74.97
2023-08-24T00:28:21.323Z,75.07
2023-08-24T00:29:21.101Z,74.97
2023-08-24T00:30:21.183Z,75.57
2023-08-24T00:31:21.113Z,75.87
2023-08-24T00:32:21.214Z,75.67
2023-08-24T00:33:21.102Z,75.17
2023-08-24T00:34:21.081Z,75.27
2023-08-24T00:35:21.141Z,75.07
2023-08-24T00:36:21.078Z,75.27
2023-08-24T00:37:21.015Z,75.57
2023-08-24T00:38:21.044Z,75.37
2023-08-24T00:39:21.061Z,75.57
2023-08-24T00:40:21.110Z,75.47
2023-08-24T00:41:21.027Z,75.37
2023-08-24T00:42:21.040Z,75.51
2023-08-24T00:43:21.046Z,75.60
2023-08-24T00:44:20.967Z,75.47
2023-08-24T00:45:20.982Z,75.91
2023-08-24T00:46:20.987Z,75.91
2023-08-24T00:47:20.961Z,76.21
2023-08-24T00:48:20.962Z,76.11
2023-08-24T00:49:20.887Z,75.51
2023-08-24T00:50:20.985Z,75.60
2023-08-24T00:51:20.902Z,75.51
2023-08-24T00:52:21.013Z,75.21
2023-08-24T00:53:20.895Z,75.60
2023-08-24T00:54:20.865Z,75.31
2023-08-24T00:55:20.961Z,75.41
2023-08-24T00:56:20.831Z,75.60
2023-08-24T00:57:20.945Z,75.71
2023-08-24T00:58:20.815Z,75.60
2023-08-24T00:59:20.838Z,75.51
2023-08-24T01:00:20.817Z,75.91
2023-08-24T01:01:20.853Z,75.91
2023-08-24T01:02:20.838Z,75.91
2023-08-24T01:03:20.842Z,75.91
2023-08-24T01:04:20.782Z,75.60
2023-08-24T01:05:20.744Z,75.51
2023-08-24T01:06:20.717Z,75.91
2023-08-24T01:07:20.783Z,76.11
2023-08-24T01:08:20.723Z,76.01
2023-08-24T01:09:20.696Z,76.11
2023-08-24T01:10:20.737Z,76.21
2023-08-24T01:11:20.694Z,76.01
2023-08-24T01:12:20.693Z,76.11
2023-08-24T01:13:20.631Z,75.91
2023-08-24T01:14:20.697Z,75.81
2023-08-24T01:15:20.631Z,76.31
2023-08-24T01:16:20.629Z,76.31
2023-08-24T01:17:20.747Z,76.41
2023-08-24T01:18:20.666Z,76.31
2023-08-24T01:19:20.597Z,75.81
2023-08-24T01:20:20.659Z,76.01
2023-08-24T01:21:20.547Z,76.41
2023-08-24T01:22:20.532Z,76.51
2023-08-24T01:23:20.547Z,76.81
2023-08-24T01:24:20.611Z,76.67
2023-08-24T01:25:20.597Z,76.51
2023-08-24T01:26:20.508Z,76.57
2023-08-24T01:27:20.628Z,76.37
2023-08-24T01:28:20.479Z,76.47
2023-08-24T01:29:20.559Z,76.47
2023-08-24T01:30:20.476Z,75.87
2023-08-24T01:31:20.566Z,75.97
2023-08-24T01:32:20.496Z,76.47
2023-08-24T01:33:20.423Z,76.28
2023-08-24T01:34:20.439Z,76.28
2023-08-24T01:35:20.473Z,76.17
2023-08-24T01:36:20.469Z,76.47
2023-08-24T01:37:20.409Z,76.28
2023-08-24T01:38:20.410Z,76.28
2023-08-24T01:39:20.415Z,76.78
2023-08-24T01:40:20.381Z,76.98
2023-08-24T01:41:20.350Z,76.98
2023-08-24T01:42:20.390Z,77.17
2023-08-24T01:43:28.636Z,77.37
2023-08-24T01:44:21.406Z,77.58
2023-08-24T01:45:20.344Z,78.08
2023-08-24T01:46:20.325Z,78.28
2023-08-24T01:47:20.301Z,78.28
2023-08-24T01:48:20.290Z,78.58
2023-08-24T01:49:20.291Z,78.68
2023-08-24T01:50:20.303Z,78.78
2023-08-24T01:51:20.250Z,78.98
2023-08-24T01:52:20.302Z,78.98
2023-08-24T01:53:20.229Z,78.98
2023-08-24T01:54:20.223Z,78.98
2023-08-24T01:55:20.254Z,79.28
2023-08-24T01:56:20.191Z,79.08
2023-08-24T01:57:20.211Z,79.38
2023-08-24T01:58:20.231Z,79.28
2023-08-24T01:59:20.145Z,79.48
2023-08-24T02:00:20.165Z,79.58
2023-08-24T02:01:20.225Z,79.58
2023-08-24T02:02:20.517Z,79.78
2023-08-24T02:03:20.283Z,80.08
2023-08-24T02:04:20.194Z,80.08
2023-08-24T02:05:20.133Z,80.18
2023-08-24T02:06:20.130Z,80.18
2023-08-24T02:07:20.095Z,80.18
2023-08-24T02:08:20.136Z,80.58
2023-08-24T02:09:20.076Z,80.48
2023-08-24T02:10:20.049Z,80.48
2023-08-24T02:11:20.043Z,80.68
2023-08-24T02:12:20.035Z,80.79
2023-08-24T02:13:20.019Z,80.88
2023-08-24T02:14:20.027Z,80.88
2023-08-24T02:15:20.000Z,80.98
2023-08-24T02:16:20.128Z,80.98
2023-08-24T02:17:19.946Z,81.18
2023-08-24T02:18:20.016Z,81.32
2023-08-24T02:19:19.974Z,81.32
2023-08-24T02:20:19.945Z,81.42
2023-08-24T02:21:19.952Z,81.52
2023-08-24T02:22:19.913Z,81.62
2023-08-24T02:23:19.902Z,81.48
2023-08-24T02:24:19.916Z,81.79
2023-08-24T02:25:19.914Z,81.68
2023-08-24T02:26:19.897Z,81.68
2023-08-24T02:27:19.850Z,81.68
2023-08-24T02:28:19.878Z,81.68
2023-08-24T02:29:19.863Z,81.68
2023-08-24T02:30:19.854Z,81.18
2023-08-24T02:31:19.852Z,81.18
2023-08-24T02:32:19.809Z,80.98
2023-08-24T02:33:19.851Z,80.79
2023-08-24T02:34:19.782Z,80.88
2023-08-24T02:35:19.919Z,80.58
2023-08-24T02:36:19.795Z,80.44
2023-08-24T02:37:19.762Z,80.65
2023-08-24T02:38:19.800Z,80.74
2023-08-24T02:39:19.789Z,80.54
2023-08-24T02:40:19.745Z,80.35
2023-08-24T02:41:19.756Z,80.15
2023-08-24T02:42:19.736Z,80.04
2023-08-24T02:43:19.685Z,79.94
2023-08-24T02:44:19.695Z,80.15
2023-08-24T02:45:19.675Z,80.24
2023-08-24T02:46:19.727Z,80.35
2023-08-24T02:47:19.680Z,80.15
2023-08-24T02:48:19.636Z,80.15
2023-08-24T02:49:20.156Z,80.04
2023-08-24T02:50:19.629Z,79.85
2023-08-24T02:51:19.620Z,79.54
2023-08-24T02:52:19.670Z,79.54
2023-08-24T02:53:19.622Z,79.54
2023-08-24T02:54:19.555Z,78.84
2023-08-24T02:55:19.637Z,78.94
2023-08-24T02:56:19.551Z,79.04
2023-08-24T02:57:19.570Z,78.74
2023-08-24T02:58:19.546Z,78.54
2023-08-24T02:59:19.514Z,78.64
2023-08-24T03:00:19.548Z,79.24
2023-08-24T03:01:19.537Z,79.24
2023-08-24T03:02:19.589Z,78.94
2023-08-24T03:03:19.474Z,79.14
2023-08-24T03:04:19.492Z,79.24
2023-08-24T03:05:19.508Z,78.84
2023-08-24T03:06:19.472Z,78.84
2023-08-24T03:07:19.444Z,79.04
2023-08-24T03:08:19.443Z,79.34
2023-08-24T03:09:19.395Z,79.44
2023-08-24T03:10:19.389Z,79.44
2023-08-24T03:11:19.382Z,79.21
2023-08-24T03:12:19.437Z,79.21
2023-08-24T03:13:19.423Z,79.21
2023-08-24T03:14:19.442Z,79.00
2023-08-24T03:15:19.320Z,79.00
2023-08-24T03:16:19.416Z,79.10
2023-08-24T03:17:19.386Z,79.21
2023-08-24T03:18:19.345Z,79.10
2023-08-24T03:19:19.267Z,79.10
2023-08-24T03:20:19.321Z,78.91
2023-08-24T03:21:19.303Z,79.00
2023-08-24T03:22:19.269Z,78.91
2023-08-24T03:23:19.267Z,79.00
2023-08-24T03:24:19.283Z,78.80
2023-08-24T03:25:19.237Z,79.10
2023-08-24T03:26:19.242Z,78.70
2023-08-24T03:27:19.291Z,78.60
2023-08-24T03:28:19.178Z,78.91
2023-08-24T03:29:19.292Z,78.70
2023-08-24T03:30:19.255Z,78.60
2023-08-24T03:31:19.150Z,78.60
2023-08-24T03:32:19.134Z,78.30
2023-08-24T03:33:19.181Z,77.80
2023-08-24T03:34:19.100Z,78.20
2023-08-24T03:35:19.100Z,78.10
2023-08-24T03:36:19.099Z,78.10
2023-08-24T03:37:19.098Z,77.91
2023-08-24T03:38:19.128Z,78.50
2023-08-24T03:39:19.040Z,78.14
2023-08-24T03:40:19.136Z,78.34
2023-08-24T03:41:19.042Z,78.64
2023-08-24T03:42:19.174Z,78.24
2023-08-24T03:43:18.978Z,77.84
2023-08-24T03:44:19.049Z,77.94
2023-08-24T03:45:18.949Z,78.04
2023-08-24T03:46:19.305Z,77.74
2023-08-24T03:47:18.984Z,77.44
2023-08-24T03:48:19.006Z,78.14
2023-08-24T03:49:18.924Z,77.24
2023-08-24T03:50:18.918Z,77.24
2023-08-24T03:51:18.965Z,78.04
2023-08-24T03:52:18.952Z,77.14
2023-08-24T03:53:18.913Z,76.43
2023-08-24T03:54:18.880Z,76.67
2023-08-24T03:55:18.888Z,77.08
2023-08-24T03:56:18.889Z,77.37
2023-08-24T03:57:18.872Z,77.48
2023-08-24T03:58:18.854Z,77.67
2023-08-24T03:59:18.851Z,77.67
2023-08-24T04:00:18.821Z,77.58
2023-08-24T04:01:18.994Z,77.34
2023-08-24T04:02:18.915Z,76.94
2023-08-24T04:03:18.847Z,77.04
2023-08-24T04:04:18.785Z,76.94
2023-08-24T04:05:18.723Z,76.43
2023-08-24T04:06:18.783Z,76.54
2023-08-24T04:07:18.786Z,76.24
2023-08-24T04:08:18.717Z,76.34
2023-08-24T04:09:18.737Z,76.24
2023-08-24T04:10:18.738Z,75.93
2023-08-24T04:11:18.752Z,75.74
2023-08-24T04:12:18.699Z,75.74
2023-08-24T04:13:18.784Z,75.50
2023-08-24T04:14:22.821Z,75.40
2023-08-24T04:15:18.750Z,75.40
2023-08-24T04:16:18.723Z,75.30
2023-08-24T04:17:18.629Z,75.00
2023-08-24T04:18:18.673Z,74.90
2023-08-24T04:19:18.618Z,75.00
2023-08-24T04:20:18.590Z,75.00
2023-08-24T04:21:18.595Z,75.00
2023-08-24T04:22:18.630Z,74.10
2023-08-24T04:23:18.609Z,74.60
2023-08-24T04:24:18.551Z,74.80
2023-08-24T04:25:18.580Z,74.50
2023-08-24T04:26:18.572Z,74.40
2023-08-24T04:27:18.582Z,74.50
2023-08-24T04:28:18.545Z,74.40
2023-08-24T04:29:18.533Z,74.20
2023-08-24T04:30:18.488Z,74.50
2023-08-24T04:31:18.483Z,73.80
2023-08-24T04:32:18.555Z,73.70
2023-08-24T04:33:18.456Z,73.70
2023-08-24T04:34:18.460Z,74.20
2023-08-24T04:35:18.547Z,74.00
2023-08-24T04:36:18.412Z,73.70
2023-08-24T04:37:18.396Z,74.20
2023-08-24T04:38:18.459Z,73.70
2023-08-24T04:39:18.394Z,74.40
2023-08-24T04:40:18.375Z,73.80
2023-08-24T04:41:18.348Z,73.70
2023-08-24T04:42:18.388Z,73.86
2023-08-24T04:43:18.394Z,74.26
2023-08-24T04:44:18.339Z,74.16
2023-08-24T04:45:18.326Z,73.86
2023-08-24T04:46:18.362Z,73.36
2023-08-24T04:47:18.307Z,74.16
2023-08-24T04:48:18.413Z,74.46
2023-08-24T04:49:18.280Z,73.46
2023-08-24T04:50:18.277Z,73.16
2023-08-24T04:51:18.287Z,73.06
2023-08-24T04:52:18.312Z,73.93
2023-08-24T04:53:18.324Z,73.83
2023-08-24T04:54:18.252Z,72.92
2023-08-24T04:55:18.198Z,72.72
2023-08-24T04:56:18.199Z,73.53
2023-08-24T04:57:18.216Z,73.33
2023-08-24T04:58:18.223Z,72.92
2023-08-24T04:59:18.294Z,72.92
2023-08-24T05:00:18.176Z,73.22
2023-08-24T05:01:18.191Z,72.23
2023-08-24T05:02:18.171Z,72.72
2023-08-24T05:03:18.208Z,73.13
2023-08-24T05:04:18.153Z,72.92
2023-08-24T05:05:18.222Z,72.39
2023-08-24T05:06:18.161Z,72.39
2023-08-24T05:07:18.125Z,72.09
2023-08-24T05:08:18.089Z,72.29
2023-08-24T05:09:18.161Z,71.39
2023-08-24T05:10:18.080Z,72.09
2023-08-24T05:11:18.109Z,71.36
2023-08-24T05:12:18.246Z,72.16
2023-08-24T05:13:18.048Z,71.56
2023-08-24T05:14:18.088Z,70.56
2023-08-24T05:15:18.024Z,71.96
2023-08-24T05:16:18.072Z,70.46
2023-08-24T05:17:18.098Z,71.33
2023-08-24T05:18:18.023Z,70.92
2023-08-24T05:19:17.998Z,71.03
2023-08-24T05:20:18.072Z,70.62
2023-08-24T05:21:18.107Z,70.59
2023-08-24T05:22:17.969Z,69.76
2023-08-24T05:23:17.939Z,69.16
2023-08-24T05:24:17.934Z,69.46
2023-08-24T05:25:17.916Z,69.56
2023-08-24T05:26:17.906Z,68.26
2023-08-24T05:27:17.896Z,67.53
2023-08-24T05:28:17.930Z,65.54
2023-08-24T05:29:17.942Z,65.67
2023-08-24T05:30:18.014Z,67.27
2023-08-24T05:31:20.242Z,67.86
2023-08-24T05:32:17.913Z,65.98
2023-08-24T05:33:17.846Z,64.95
2023-08-24T05:34:17.786Z,64.55
2023-08-24T05:35:17.918Z,64.22
2023-08-24T05:36:17.817Z,64.19
2023-08-24T05:37:17.797Z,61.49
2023-08-24T05:38:17.862Z,59.81
2023-08-24T05:39:17.745Z,57.56
2023-08-24T05:40:17.753Z,56.71
2023-08-24T05:41:17.745Z,55.62
2023-08-24T05:42:17.740Z,54.90
2023-08-24T05:43:17.757Z,55.82
2023-08-24T05:44:17.746Z,56.04
2023-08-24T05:45:17.983Z,55.45
2023-08-24T05:46:17.726Z,56.74
2023-08-24T05:47:17.760Z,57.16
2023-08-24T05:48:17.928Z,55.79
2023-08-24T05:49:17.773Z,53.74
2023-08-24T05:50:17.614Z,53.61
2023-08-24T05:51:17.734Z,52.40
2023-08-24T05:52:17.640Z,51.99
2023-08-24T05:53:17.725Z,50.95
2023-08-24T05:54:17.619Z,50.29
2023-08-24T05:55:17.596Z,50.66
2023-08-24T05:56:17.662Z,49.53
2023-08-24T05:57:17.578Z,49.95
2023-08-24T05:58:17.556Z,49.87
2023-08-24T05:59:17.560Z,50.66
2023-08-24T06:00:17.551Z,50.90
2023-08-24T06:01:17.594Z,51.00
2023-08-24T06:02:17.507Z,50.66
2023-08-24T06:03:17.492Z,49.95
2023-08-24T06:04:17.553Z,49.53
2023-08-24T06:05:17.484Z,49.53
2023-08-24T06:06:17.505Z,48.99
2023-08-24T06:07:17.474Z,47.69
2023-08-24T06:08:17.466Z,47.77
2023-08-24T06:09:17.469Z,46.69
2023-08-24T06:10:17.498Z,46.86
2023-08-24T06:11:17.442Z,46.15
2023-08-24T06:12:17.464Z,46.86
2023-08-24T06:13:17.384Z,45.86
2023-08-24T06:14:17.477Z,46.54
2023-08-24T06:15:17.377Z,46.25
2023-08-24T06:16:17.413Z,47.25
2023-08-24T06:17:17.413Z,47.79
2023-08-24T06:18:17.422Z,46.88
2023-08-24T06:19:17.330Z,47.35
2023-08-24T06:20:17.350Z,46.44
2023-08-24T06:21:17.425Z,46.44
2023-08-24T06:22:17.339Z,45.64
2023-08-24T06:23:17.366Z,45.73
2023-08-24T06:24:17.316Z,45.64
2023-08-24T06:25:17.284Z,46.05
2023-08-24T06:26:17.245Z,46.13
2023-08-24T06:27:18.112Z,45.59
2023-08-24T06:28:17.662Z,47.89
2023-08-24T06:29:17.260Z,48.18
2023-08-24T06:30:17.253Z,47.37
2023-08-24T06:31:17.449Z,46.95
2023-08-24T06:32:17.239Z,46.49
2023-08-24T06:33:17.197Z,46.61
2023-08-24T06:34:17.282Z,48.65
2023-08-24T06:35:17.207Z,49.68
2023-08-24T06:36:17.167Z,49.38
2023-08-24T06:37:17.228Z,50.07
2023-08-24T06:38:17.242Z,50.56
2023-08-24T06:39:17.124Z,48.79
2023-08-24T06:40:17.142Z,49.70
2023-08-24T06:41:17.102Z,49.11
2023-08-24T06:42:17.122Z,49.62
2023-08-24T06:43:17.177Z,50.26
2023-08-24T06:44:17.088Z,52.36
2023-08-24T06:45:17.093Z,50.63
2023-08-24T06:46:17.109Z,50.24
2023-08-24T06:47:17.084Z,49.70
2023-08-24T06:48:17.060Z,49.58
2023-08-24T06:49:17.177Z,49.55
2023-08-24T06:50:17.077Z,48.62
2023-08-24T06:51:17.022Z,47.61
2023-08-24T06:52:17.186Z,48.60
2023-08-24T06:53:17.033Z,48.74
2023-08-24T06:54:17.013Z,49.08
2023-08-24T06:55:17.058Z,49.82
2023-08-24T06:56:16.966Z,50.76
2023-08-24T06:57:17.108Z,51.99
2023-08-24T06:58:16.980Z,53.10
2023-08-24T06:59:17.017Z,53.85
2023-08-24T07:00:16.920Z,54.61
2023-08-24T07:01:16.976Z,56.45
2023-08-24T07:02:16.908Z,57.37
2023-08-24T07:03:17.202Z,57.89
2023-08-24T07:04:16.896Z,58.81
2023-08-24T07:05:16.885Z,58.94
2023-08-24T07:06:16.853Z,59.27
2023-08-24T07:07:16.911Z,60.19
2023-08-24T07:08:16.843Z,61.71
2023-08-24T07:09:16.938Z,60.71
2023-08-24T07:10:16.830Z,61.04
2023-08-24T07:11:16.783Z,61.83
2023-08-24T07:12:16.804Z,62.04
2023-08-24T07:13:16.920Z,61.64
2023-08-24T07:14:16.856Z,62.13
2023-08-24T07:15:16.764Z,62.34
2023-08-24T07:16:16.818Z,61.74
2023-08-24T07:17:16.855Z,61.74
2023-08-24T07:18:16.724Z,61.61
2023-08-24T07:19:17.853Z,61.71
2023-08-24T07:20:16.764Z,61.61
2023-08-24T07:21:16.944Z,61.61
2023-08-24T07:22:16.712Z,61.01
2023-08-24T07:23:16.684Z,61.11
2023-08-24T07:24:17.068Z,61.38
2023-08-24T07:25:16.717Z,60.98
2023-08-24T07:26:16.664Z,61.08
2023-08-24T07:27:16.649Z,61.08
2023-08-24T07:28:16.664Z,61.28
2023-08-24T07:29:16.638Z,59.89
2023-08-24T07:30:31.065Z,60.31
2023-08-24T07:31:17.672Z,61.14
2023-08-24T07:32:16.719Z,61.24
2023-08-24T07:33:16.619Z,61.67
2023-08-24T07:34:16.573Z,62.16
2023-08-24T07:35:16.563Z,62.16
2023-08-24T07:36:16.583Z,63.26
2023-08-24T07:37:16.539Z,62.96
2023-08-24T07:38:16.607Z,61.94
2023-08-24T07:39:16.512Z,61.44
2023-08-24T07:40:16.537Z,61.44
2023-08-24T07:41:16.533Z,61.64
2023-08-24T07:42:16.485Z,61.64
2023-08-24T07:43:16.547Z,60.84
2023-08-24T07:44:16.554Z,61.61
2023-08-24T07:45:16.506Z,60.42
2023-08-24T07:46:16.479Z,60.12
2023-08-24T07:47:16.460Z,59.92
2023-08-24T07:48:16.556Z,60.31
2023-08-24T07:49:16.393Z,60.61
2023-08-24T07:50:16.568Z,60.12
2023-08-24T07:51:16.397Z,60.58
2023-08-24T07:52:16.421Z,59.89
2023-08-24T07:53:16.379Z,59.30
2023-08-24T07:54:16.400Z,59.19
2023-08-24T07:55:16.392Z,59.62
2023-08-24T07:56:16.665Z,60.02
2023-08-24T07:57:16.361Z,59.92
2023-08-24T07:58:17.229Z,59.62
2023-08-24T07:59:16.352Z,60.02
2023-08-24T08:00:16.375Z,59.92
2023-08-24T08:01:16.323Z,60.19
2023-08-24T08:02:16.346Z,59.79
2023-08-24T08:03:17.175Z,59.47
2023-08-24T08:04:17.895Z,58.27
2023-08-24T08:05:16.252Z,58.07
2023-08-24T08:06:16.286Z,58.07
2023-08-24T08:07:18.075Z,58.47
2023-08-24T08:08:18.083Z,58.57
2023-08-24T08:09:16.531Z,58.74
2023-08-24T08:10:16.340Z,58.74
2023-08-24T08:11:18.140Z,58.32
2023-08-24T08:12:17.030Z,57.62
2023-08-24T08:13:16.187Z,58.91
2023-08-24T08:14:16.179Z,57.23
2023-08-24T08:15:16.143Z,57.69
2023-08-24T08:16:17.009Z,57.50
2023-08-24T08:17:16.615Z,57.27
2023-08-24T08:18:16.404Z,57.34
2023-08-24T08:19:16.138Z,57.54
2023-08-24T08:20:16.162Z,55.85
2023-08-24T08:21:18.417Z,55.09
2023-08-24T08:22:16.399Z,57.40
2023-08-24T08:23:16.108Z,57.07
2023-08-24T08:24:25.289Z,56.51
2023-08-24T08:25:17.790Z,56.70
2023-08-24T08:26:16.383Z,57.46
2023-08-24T08:27:16.021Z,55.19
2023-08-24T08:28:17.755Z,55.68
2023-08-24T08:29:16.028Z,57.86
2023-08-24T08:30:16.027Z,57.54
2023-08-24T08:31:16.102Z,57.12
2023-08-24T08:32:16.105Z,56.52
2023-08-24T08:33:15.989Z,55.80
2023-08-24T08:34:15.983Z,55.70
2023-08-24T08:35:15.987Z,55.41
2023-08-24T08:36:15.974Z,55.11
2023-08-24T08:37:17.031Z,54.35
2023-08-24T08:38:16.514Z,54.57
2023-08-24T08:39:15.971Z,57.00
2023-08-24T08:40:16.128Z,56.80
2023-08-24T08:41:17.143Z,56.11
2023-08-24T08:42:16.522Z,56.43
2023-08-24T08:43:15.838Z,57.03
2023-08-24T08:44:17.794Z,56.95
2023-08-24T08:45:15.964Z,56.56
2023-08-24T08:46:15.920Z,57.25
2023-08-24T08:47:15.821Z,56.85
2023-08-24T08:48:15.866Z,57.55
2023-08-24T08:49:15.907Z,58.25
2023-08-24T08:50:16.560Z,57.95
2023-08-24T08:51:17.498Z,57.45
2023-08-24T08:52:16.183Z,57.75
2023-08-24T08:53:15.985Z,58.15
2023-08-24T08:54:15.730Z,57.15
2023-08-24T08:55:17.624Z,57.25
2023-08-24T08:56:15.745Z,57.35
2023-08-24T08:57:15.968Z,57.55
2023-08-24T08:58:15.716Z,58.34
2023-08-24T08:59:16.427Z,58.64
2023-08-24T09:00:15.695Z,58.25
2023-08-24T09:01:16.033Z,58.04
2023-08-24T09:02:16.668Z,57.53
2023-08-24T09:03:17.078Z,58.91
2023-08-24T09:04:16.263Z,58.42
2023-08-24T09:05:15.830Z,58.22
2023-08-24T09:06:15.618Z,57.79
2023-08-24T09:07:15.588Z,57.29
2023-08-24T09:08:16.281Z,57.50
2023-08-24T09:09:16.073Z,57.59
2023-08-24T09:10:15.604Z,57.99
2023-08-24T09:11:15.590Z,57.99
2023-08-24T09:12:15.562Z,58.29
2023-08-24T09:13:15.565Z,57.50
2023-08-24T09:14:15.540Z,57.76
2023-08-24T09:15:15.544Z,56.97
2023-08-24T09:16:16.379Z,57.07
2023-08-24T09:17:15.560Z,55.36
2023-08-24T09:18:15.533Z,55.96
2023-08-24T09:19:15.535Z,54.84
2023-08-24T09:20:17.440Z,56.65
2023-08-24T09:21:15.473Z,55.93
2023-08-24T09:22:15.959Z,56.32
2023-08-24T09:23:15.427Z,55.85
2023-08-24T09:24:15.501Z,55.66
2023-08-24T09:25:15.411Z,57.04
2023-08-24T09:26:16.088Z,55.98
2023-08-24T09:27:15.410Z,57.37
2023-08-24T09:28:15.445Z,57.40
2023-08-24T09:29:15.380Z,57.29
2023-08-24T09:30:15.468Z,57.69
2023-08-24T09:31:15.378Z,58.09
2023-08-24T09:32:15.384Z,57.50
2023-08-24T09:33:15.372Z,59.25
2023-08-24T09:34:15.382Z,57.24
2023-08-24T09:35:15.318Z,57.34
2023-08-24T09:36:15.312Z,56.95
2023-08-24T09:37:15.276Z,55.76
2023-08-24T09:38:15.321Z,56.15
2023-08-24T09:39:15.340Z,54.96
2023-08-24T09:40:15.656Z,54.77
2023-08-24T09:41:15.276Z,56.52
2023-08-24T09:42:15.254Z,55.24
2023-08-24T09:43:15.277Z,55.90
2023-08-24T09:44:15.200Z,55.87
2023-08-24T09:45:15.783Z,55.58
2023-08-24T09:46:16.350Z,55.08
2023-08-24T09:47:15.150Z,53.99
2023-08-24T09:48:15.160Z,52.61
2023-08-24T09:49:15.308Z,53.53
2023-08-24T09:50:15.187Z,53.33
2023-08-24T09:51:15.152Z,53.82
2023-08-24T09:52:15.169Z,53.23
2023-08-24T09:53:15.120Z,52.93
2023-08-24T09:54:15.138Z,52.93
2023-08-24T09:55:15.093Z,54.49
2023-08-24T09:56:15.085Z,54.29
2023-08-24T09:57:15.073Z,54.19
2023-08-24T09:58:15.298Z,53.11
2023-08-24T09:59:15.164Z,53.42
2023-08-24T10:00:15.078Z,53.03
2023-08-24T10:01:15.142Z,52.04
2023-08-24T10:02:15.109Z,52.36
2023-08-24T10:03:15.088Z,52.69
2023-08-24T10:04:14.999Z,53.08
2023-08-24T10:05:25.709Z,53.08
2023-08-24T10:06:16.060Z,53.95
2023-08-24T10:07:14.957Z,54.14
2023-08-24T10:08:14.932Z,54.52
2023-08-24T10:09:14.953Z,52.34
2023-08-24T10:10:15.031Z,52.73
2023-08-24T10:11:16.296Z,53.40
2023-08-24T10:12:15.604Z,52.31
2023-08-24T10:13:14.869Z,51.52
2023-08-24T10:14:14.891Z,51.82
2023-08-24T10:15:15.100Z,49.74
2023-08-24T10:16:14.929Z,51.15
2023-08-24T10:17:15.750Z,52.44
2023-08-24T10:18:14.939Z,50.66
2023-08-24T10:19:14.882Z,51.05
2023-08-24T10:20:14.907Z,52.44
2023-08-24T10:21:14.906Z,51.62
2023-08-24T10:22:14.851Z,52.81
2023-08-24T10:23:14.800Z,51.62
2023-08-24T10:24:14.780Z,52.51
2023-08-24T10:25:14.768Z,51.59
2023-08-24T10:26:14.778Z,51.70
2023-08-24T10:27:14.750Z,50.88
2023-08-24T10:28:14.774Z,51.57
2023-08-24T10:29:14.725Z,50.59
2023-08-24T10:30:14.792Z,51.47
2023-08-24T10:31:14.813Z,51.07
2023-08-24T10:32:14.918Z,50.88
2023-08-24T10:33:14.788Z,50.38
2023-08-24T10:34:14.695Z,50.71
2023-08-24T10:35:15.443Z,51.32
2023-08-24T10:36:15.138Z,52.04
2023-08-24T10:37:14.711Z,52.54
2023-08-24T10:38:14.621Z,53.50
2023-08-24T10:39:14.715Z,53.50
2023-08-24T10:40:14.622Z,53.38
2023-08-24T10:41:15.720Z,52.86
2023-08-24T10:42:14.653Z,52.46
2023-08-24T10:43:14.591Z,53.35
2023-08-24T10:44:14.586Z,52.53
2023-08-24T10:45:14.599Z,52.83
2023-08-24T10:46:14.615Z,51.82
2023-08-24T10:47:14.693Z,51.13
2023-08-24T10:48:14.541Z,50.73
2023-08-24T10:49:14.527Z,51.52
2023-08-24T10:50:14.529Z,52.21
2023-08-24T10:51:14.497Z,51.03
2023-08-24T10:52:14.590Z,50.95
2023-08-24T10:53:14.511Z,51.57
2023-08-24T10:54:14.510Z,51.70
2023-08-24T10:55:14.522Z,51.89
2023-08-24T10:56:14.447Z,51.59
2023-08-24T10:57:14.524Z,51.79
2023-08-24T10:58:14.425Z,52.86
2023-08-24T10:59:14.461Z,52.46
2023-08-24T11:00:14.558Z,52.83
2023-08-24T11:01:14.482Z,51.94
2023-08-24T11:02:14.390Z,52.24
2023-08-24T11:03:14.451Z,51.42
2023-08-24T11:04:14.530Z,51.13
2023-08-24T11:05:14.403Z,51.62
2023-08-24T11:06:14.503Z,51.42
2023-08-24T11:07:14.397Z,50.83
2023-08-24T11:08:14.312Z,50.63
2023-08-24T11:09:14.420Z,51.20
2023-08-24T11:10:14.349Z,51.79
2023-08-24T11:11:14.395Z,51.00
2023-08-24T11:12:14.278Z,51.97
2023-08-24T11:13:14.343Z,51.18
2023-08-24T11:14:14.256Z,51.07
2023-08-24T11:15:14.235Z,50.98
2023-08-24T11:16:14.236Z,50.12
2023-08-24T11:17:14.284Z,51.30
2023-08-24T11:18:14.234Z,51.23
2023-08-24T11:19:14.376Z,51.72
2023-08-24T11:20:14.316Z,50.54
2023-08-24T11:21:14.190Z,50.85
2023-08-24T11:22:14.237Z,52.24
2023-08-24T11:23:14.408Z,52.44
2023-08-24T11:24:14.289Z,53.12
2023-08-24T11:25:14.254Z,51.84
2023-08-24T11:26:14.116Z,52.73
2023-08-24T11:27:14.379Z,52.01
2023-08-24T11:28:14.162Z,52.70
2023-08-24T11:29:14.168Z,51.50
2023-08-24T11:30:14.071Z,52.09
2023-08-24T11:31:14.141Z,52.09
2023-08-24T11:32:14.072Z,52.06
2023-08-24T11:33:14.062Z,51.07
2023-08-24T11:34:14.078Z,51.77
2023-08-24T11:35:14.139Z,51.50
2023-08-24T11:36:14.289Z,51.79
2023-08-24T11:37:14.042Z,51.59
2023-08-24T11:38:13.991Z,52.16
2023-08-24T11:39:14.016Z,51.59
2023-08-24T11:40:13.972Z,51.00
2023-08-24T11:41:14.220Z,51.42
2023-08-24T11:42:13.995Z,51.64
2023-08-24T11:43:14.002Z,53.42
2023-08-24T11:44:23.145Z,52.91
2023-08-24T11:45:14.959Z,52.91
2023-08-24T11:46:13.996Z,51.89
2023-08-24T11:47:13.949Z,51.59
2023-08-24T11:48:13.951Z,51.47
2023-08-24T11:49:13.918Z,50.78
2023-08-24T11:50:13.937Z,51.05
2023-08-24T11:51:14.228Z,51.15
2023-08-24T11:52:13.906Z,51.25
2023-08-24T11:53:13.901Z,51.05
2023-08-24T11:54:13.904Z,51.45
2023-08-24T11:55:13.856Z,50.85
2023-08-24T11:56:13.836Z,51.05
2023-08-24T11:57:13.880Z,51.12
2023-08-24T11:58:13.807Z,50.44
2023-08-24T11:59:13.786Z,50.63
2023-08-24T12:00:13.809Z,49.75
2023-08-24T12:01:13.866Z,50.07
2023-08-24T12:02:13.848Z,50.66
2023-08-24T12:03:13.776Z,50.44
2023-08-24T12:04:13.740Z,51.23
2023-08-24T12:05:13.772Z,51.00
2023-08-24T12:06:13.711Z,50.31
2023-08-24T12:07:13.757Z,49.62
2023-08-24T12:08:13.684Z,50.14
2023-08-24T12:09:13.843Z,50.34
2023-08-24T12:10:13.655Z,49.45
2023-08-24T12:11:13.708Z,49.97
2023-08-24T12:12:13.682Z,51.57
2023-08-24T12:13:13.736Z,51.77
2023-08-24T12:14:13.628Z,51.18
2023-08-24T12:15:13.643Z,50.49
2023-08-24T12:16:13.658Z,51.05
2023-08-24T12:17:13.643Z,51.15
2023-08-24T12:18:13.659Z,51.15
2023-08-24T12:19:13.607Z,50.14
2023-08-24T12:20:13.586Z,49.75
2023-08-24T12:21:13.582Z,50.31
2023-08-24T12:22:13.589Z,50.21
2023-08-24T12:23:13.582Z,50.21
2023-08-24T12:24:13.581Z,50.12
2023-08-24T12:25:13.508Z,50.31
2023-08-24T12:26:13.555Z,50.61
2023-08-24T12:27:13.519Z,49.92
2023-08-24T12:28:13.554Z,50.02
2023-08-24T12:29:13.532Z,49.73
2023-08-24T12:30:13.514Z,50.21
2023-08-24T12:31:13.566Z,50.31
2023-08-24T12:32:13.448Z,49.92
2023-08-24T12:33:13.532Z,49.92
2023-08-24T12:34:13.422Z,50.78
2023-08-24T12:35:13.578Z,50.19
2023-08-24T12:36:13.421Z,50.09
2023-08-24T12:37:13.455Z,48.61
2023-08-24T12:38:13.437Z,48.32
2023-08-24T12:39:13.379Z,48.94
2023-08-24T12:40:13.371Z,49.73
2023-08-24T12:41:13.378Z,49.43
2023-08-24T12:42:13.368Z,48.83
2023-08-24T12:43:13.390Z,49.18
2023-08-24T12:44:15.364Z,49.69
2023-08-24T12:45:13.339Z,50.41
2023-08-24T12:46:13.378Z,51.37
2023-08-24T12:47:13.305Z,51.05
2023-08-24T12:48:13.326Z,50.85
2023-08-24T12:49:13.327Z,51.45
2023-08-24T12:50:13.278Z,51.52
2023-08-24T12:51:13.265Z,51.32
2023-08-24T12:52:13.262Z,51.59